Terminal Aerodrome Forecast
Issued by NWS

Home | Current Version | Previous Version | Text Only | Print | Product List | Glossary On
Versions: 1 2 3 4 5 6 7 8 9 10 11 12 13 14 15 16 17 18 19 20
732
FTUS44 KCRP 211236 AAA
TAFALI
TAF AMD
KALI 211236Z 2113/2212 VRB03KT 4SM BR OVC015
      TEMPO 2113/2115 3/4SM BR BKN003 OVC015
     FM211500 16007KT P6SM SCT015 BKN025
     FM211700 16010KT P6SM SCT035
     FM220800 VRB03KT 3/4SM BR VV004=

USA.gov is the U.S. government's official web portal to all federal, state and local government web resources and services.